createdAt,value
2019-04-29T00:01:26.872Z,16.55
2019-04-29T00:03:55.897Z,15.72
2019-04-29T00:06:24.930Z,15.80
2019-04-29T00:08:53.902Z,14.90
2019-04-29T00:11:22.930Z,15.00
2019-04-29T00:13:51.930Z,17.00
2019-04-29T00:16:37.986Z,16.50
2019-04-29T00:19:11.370Z,17.50
2019-04-29T00:21:40.713Z,17.10
2019-04-29T00:24:10.012Z,16.73
2019-04-29T00:26:39.123Z,16.25
2019-04-29T00:29:08.067Z,16.42
2019-04-29T00:31:37.414Z,16.62
2019-04-29T00:34:06.724Z,15.43
2019-04-29T00:36:43.482Z,16.55
2019-04-29T00:39:29.932Z,16.62
2019-04-29T00:42:00.778Z,13.62
2019-04-29T00:44:29.733Z,14.68
2019-04-29T00:46:58.675Z,14.70
2019-04-29T00:49:27.641Z,14.65
2019-04-29T00:51:56.599Z,13.43
2019-04-29T00:54:27.255Z,14.55
2019-04-29T00:56:56.652Z,15.30
2019-04-29T00:59:25.607Z,14.65
2019-04-29T01:01:54.710Z,14.93
2019-04-29T01:04:23.935Z,14.35
2019-04-29T01:06:52.946Z,14.78
2019-04-29T01:09:21.987Z,14.70
2019-04-29T01:11:51.081Z,14.40
2019-04-29T01:14:20.047Z,14.93
2019-04-29T01:16:49.330Z,13.83
2019-04-29T01:19:18.323Z,13.72
2019-04-29T01:21:47.279Z,14.03
2019-04-29T01:24:16.229Z,14.13
2019-04-29T01:26:55.907Z,13.15
2019-04-29T01:29:26.575Z,13.83
2019-04-29T01:31:55.952Z,13.65
2019-04-29T01:34:26.558Z,15.58
2019-04-29T01:36:55.560Z,15.38
2019-04-29T01:39:26.594Z,15.75
2019-04-29T01:42:09.209Z,14.75
2019-04-29T01:44:38.231Z,16.02
2019-04-29T01:47:07.187Z,18.05
2019-04-29T01:49:36.160Z,19.25
2019-04-29T01:52:05.254Z,18.85
2019-04-29T01:54:34.260Z,19.27
2019-04-29T01:57:03.214Z,17.90
2019-04-29T01:59:32.160Z,17.30
2019-04-29T02:02:01.212Z,17.95
2019-04-29T02:04:30.164Z,17.40
2019-04-29T02:06:59.151Z,17.52
2019-04-29T02:09:36.101Z,17.12
2019-04-29T02:12:05.245Z,18.05
2019-04-29T02:14:34.193Z,18.32
2019-04-29T02:17:03.149Z,18.95
2019-04-29T02:19:32.118Z,20.48
2019-04-29T02:22:08.486Z,17.42
2019-04-29T02:24:39.304Z,18.60
2019-04-29T02:27:08.258Z,18.67
2019-04-29T02:29:37.286Z,18.30
2019-04-29T02:32:06.580Z,17.85
2019-04-29T02:34:35.537Z,20.27
2019-04-29T02:37:06.134Z,18.75
2019-04-29T02:39:39.692Z,17.65
2019-04-29T02:42:26.231Z,17.15
2019-04-29T02:44:56.309Z,17.60
2019-04-29T02:47:25.258Z,16.70
2019-04-29T02:49:54.252Z,16.60
2019-04-29T02:52:23.218Z,16.65
2019-04-29T02:54:54.274Z,16.90
2019-04-29T02:57:24.936Z,16.55
2019-04-29T02:59:58.482Z,15.38
2019-04-29T03:05:17.474Z,15.00
2019-04-29T03:07:46.590Z,14.10
2019-04-29T03:10:16.173Z,13.25
2019-04-29T03:12:45.476Z,13.53
2019-04-29T03:15:17.589Z,14.45
2019-04-29T03:17:46.710Z,14.33
2019-04-29T03:20:17.742Z,15.45
2019-04-29T03:22:48.407Z,13.48
2019-04-29T03:25:17.404Z,13.75
2019-04-29T03:27:46.443Z,13.70
2019-04-29T03:30:15.794Z,14.60
2019-04-29T03:32:44.844Z,13.40
2019-04-29T03:35:13.942Z,13.40
2019-04-29T03:37:42.944Z,13.68
2019-04-29T03:40:12.326Z,14.58
2019-04-29T03:42:41.372Z,14.23
2019-04-29T03:45:10.410Z,14.65
2019-04-29T03:47:39.456Z,14.78
2019-04-29T03:50:08.582Z,14.50
2019-04-29T03:52:37.613Z,14.47
2019-04-29T03:55:06.713Z,14.58
2019-04-29T03:57:37.034Z,13.18
2019-04-29T04:00:08.066Z,12.60
2019-04-29T04:02:44.886Z,12.78
2019-04-29T04:05:31.766Z,12.70
2019-04-29T04:08:18.870Z,12.35
2019-04-29T04:10:48.231Z,12.73
2019-04-29T04:13:17.558Z,12.78
2019-04-29T04:15:46.701Z,12.90
2019-04-29T04:18:20.376Z,12.03
2019-04-29T04:20:49.437Z,12.18
2019-04-29T04:23:18.397Z,12.13
2019-04-29T04:25:47.372Z,12.37
2019-04-29T04:28:16.340Z,12.95
2019-04-29T04:30:45.761Z,12.88
2019-04-29T04:33:14.758Z,13.45
2019-04-29T04:35:43.994Z,12.78
2019-04-29T04:38:13.285Z,12.25
2019-04-29T04:40:46.987Z,12.55
2019-04-29T04:43:16.039Z,11.83
2019-04-29T04:45:45.047Z,11.33
2019-04-29T04:48:14.023Z,10.28
2019-04-29T04:50:42.977Z,10.80
2019-04-29T04:53:12.231Z,11.80
2019-04-29T04:55:42.932Z,10.25
2019-04-29T04:58:11.971Z,11.22
2019-04-29T05:00:41.202Z,11.90
2019-04-29T05:03:10.233Z,11.03
2019-04-29T05:05:39.213Z,11.48
2019-04-29T05:08:09.880Z,11.00
2019-04-29T05:10:38.976Z,10.25
2019-04-29T05:13:08.000Z,10.32
2019-04-29T05:15:36.956Z,11.20
2019-04-29T05:18:06.006Z,10.23
2019-04-29T05:20:35.173Z,11.05
2019-04-29T05:23:04.171Z,14.15
2019-04-29T05:25:33.898Z,12.80
2019-04-29T05:28:03.086Z,14.07
2019-04-29T05:30:32.316Z,12.75
2019-04-29T05:33:01.350Z,17.60
2019-04-29T05:35:46.956Z,17.73
2019-04-29T05:38:17.900Z,18.23
2019-04-29T05:40:48.523Z,20.55
2019-04-29T05:43:21.699Z,19.90
2019-04-29T05:45:55.002Z,20.23
2019-04-29T05:48:27.666Z,19.92
2019-04-29T05:50:56.564Z,20.40
2019-04-29T05:53:27.245Z,20.35
2019-04-29T05:55:56.299Z,20.32
2019-04-29T05:58:25.433Z,19.75
2019-04-29T06:00:59.339Z,20.10
2019-04-29T06:03:28.309Z,21.25
2019-04-29T06:05:57.264Z,20.92
2019-04-29T06:08:26.252Z,22.55
2019-04-29T06:10:55.289Z,19.57
2019-04-29T06:13:27.176Z,18.17
2019-04-29T06:15:56.282Z,17.92
2019-04-29T06:18:25.243Z,18.45
2019-04-29T06:21:07.964Z,15.58
2019-04-29T06:23:24.901Z,15.78
2019-04-29T06:25:54.012Z,16.50
2019-04-29T06:28:26.347Z,15.75
2019-04-29T06:30:53.671Z,15.98
2019-04-29T06:33:24.295Z,15.93
2019-04-29T06:35:53.393Z,17.82
2019-04-29T06:38:22.439Z,17.25
2019-04-29T06:40:51.477Z,16.25
2019-04-29T06:43:20.469Z,17.55
2019-04-29T06:45:49.519Z,19.10
2019-04-29T06:48:18.485Z,18.55
2019-04-29T06:50:49.733Z,18.95
2019-04-29T06:53:21.428Z,18.98
2019-04-29T06:55:48.906Z,19.20
2019-04-29T06:58:17.978Z,19.35
2019-04-29T07:00:47.015Z,19.67
2019-04-29T07:03:16.076Z,20.17
2019-04-29T07:05:45.056Z,20.45
2019-04-29T07:08:14.292Z,21.15
2019-04-29T07:10:43.353Z,21.10
2019-04-29T07:13:12.317Z,21.35
2019-04-29T07:15:43.588Z,20.30
2019-04-29T07:18:12.021Z,20.62
2019-04-29T07:20:41.005Z,21.60
2019-04-29T07:23:10.055Z,21.95
2019-04-29T07:25:39.030Z,22.82
2019-04-29T07:28:08.074Z,21.82
2019-04-29T07:30:39.211Z,21.50
2019-04-29T07:33:08.000Z,21.90
2019-04-29T07:35:38.256Z,22.82
2019-04-29T07:38:08.580Z,23.52
2019-04-29T07:40:38.769Z,22.85
2019-04-29T07:43:09.678Z,22.62
2019-04-29T07:45:44.421Z,22.48
2019-04-29T07:48:13.751Z,23.00
2019-04-29T07:50:43.080Z,23.62
2019-04-29T07:53:12.447Z,23.05
2019-04-29T07:55:41.412Z,24.02
2019-04-29T07:58:10.363Z,23.50
2019-04-29T08:00:39.375Z,22.13
2019-04-29T08:03:08.541Z,21.20
2019-04-29T08:05:37.689Z,22.52
2019-04-29T08:08:06.854Z,22.17
2019-04-29T08:10:35.894Z,21.10
2019-04-29T08:13:05.027Z,21.62
2019-04-29T08:15:36.837Z,20.40
2019-04-29T08:18:06.825Z,20.65
2019-04-29T08:20:39.614Z,18.87
2019-04-29T08:23:06.117Z,18.05
2019-04-29T08:25:35.204Z,17.87
2019-04-29T08:28:04.315Z,16.85
2019-04-29T08:30:33.309Z,16.97
2019-04-29T08:33:02.352Z,15.53
2019-04-29T08:35:40.185Z,16.60
2019-04-29T08:38:09.333Z,16.77
2019-04-29T08:40:38.304Z,16.82
2019-04-29T08:43:15.907Z,17.25
2019-04-29T08:45:49.913Z,17.23
2019-04-29T08:48:18.951Z,15.85
2019-04-29T08:50:47.929Z,17.57
2019-04-29T08:53:16.901Z,17.75
2019-04-29T08:55:45.906Z,16.35
2019-04-29T08:58:14.943Z,16.55
2019-04-29T09:00:44.286Z,16.70
2019-04-29T09:03:13.281Z,15.50
2019-04-29T09:05:46.110Z,15.28
2019-04-29T09:08:13.679Z,15.18
2019-04-29T09:10:42.908Z,14.80
2019-04-29T09:13:12.238Z,14.05
2019-04-29T09:15:41.231Z,13.72
2019-04-29T09:18:11.285Z,11.22
2019-04-29T09:20:40.456Z,10.18
2019-04-29T09:23:11.069Z,8.05
2019-04-29T09:25:41.662Z,8.13
2019-04-29T09:28:17.652Z,10.53
2019-04-29T09:30:43.527Z,8.53
2019-04-29T09:33:13.188Z,7.53
2019-04-29T09:35:43.224Z,9.10
2019-04-29T09:38:12.192Z,9.10
2019-04-29T09:40:45.854Z,9.50
2019-04-29T09:43:26.161Z,9.50
2019-04-29T09:46:00.609Z,9.25
2019-04-29T09:48:29.548Z,8.08
2019-04-29T09:50:58.894Z,8.90
2019-04-29T09:53:27.912Z,8.70
2019-04-29T09:55:57.691Z,9.00
2019-04-29T09:58:26.733Z,8.18
2019-04-29T10:01:13.780Z,8.68
2019-04-29T10:03:42.059Z,9.38
2019-04-29T10:06:15.314Z,10.00
2019-04-29T10:08:44.366Z,9.98
2019-04-29T10:11:13.583Z,10.10
2019-04-29T10:13:42.659Z,9.50
2019-04-29T10:16:13.268Z,8.98
2019-04-29T10:18:52.602Z,8.95
2019-04-29T10:21:23.381Z,9.07
2019-04-29T10:23:52.941Z,9.68
2019-04-29T10:26:21.934Z,9.63
2019-04-29T10:28:52.544Z,9.65
2019-04-29T10:31:22.143Z,9.03
2019-04-29T10:33:55.046Z,8.80
2019-04-29T10:36:21.889Z,9.40
2019-04-29T10:38:52.821Z,8.90
2019-04-29T10:41:25.154Z,9.30
2019-04-29T10:44:14.378Z,9.65
2019-04-29T10:47:03.273Z,8.70
2019-04-29T10:49:39.330Z,8.70
2019-04-29T10:52:07.773Z,8.33
2019-04-29T10:54:37.252Z,7.50
2019-04-29T10:57:06.462Z,7.80
2019-04-29T10:59:40.794Z,7.47
2019-04-29T11:02:18.399Z,7.53
2019-04-29T11:04:49.231Z,6.92
2019-04-29T11:07:26.761Z,7.53
2019-04-29T11:09:52.686Z,7.83
2019-04-29T11:12:22.291Z,8.00
2019-04-29T11:14:51.241Z,8.60
2019-04-29T11:17:22.823Z,9.05
2019-04-29T11:19:51.794Z,8.78
2019-04-29T11:22:22.461Z,8.83
2019-04-29T11:24:53.235Z,9.00
2019-04-29T11:27:26.630Z,9.75
2019-04-29T11:29:58.480Z,8.70
2019-04-29T11:32:33.746Z,8.68
2019-04-29T11:35:04.396Z,8.60
2019-04-29T11:37:33.368Z,7.35
2019-04-29T11:40:02.328Z,8.60
2019-04-29T11:42:36.378Z,7.75
2019-04-29T11:45:04.660Z,7.30
2019-04-29T11:47:33.748Z,7.40
2019-04-29T11:50:07.677Z,7.42
2019-04-29T11:52:38.323Z,7.67
2019-04-29T11:55:08.275Z,7.80
2019-04-29T11:57:41.185Z,8.33
2019-04-29T12:00:13.754Z,8.08
2019-04-29T12:02:47.070Z,8.20
2019-04-29T12:05:17.912Z,7.58
2019-04-29T12:07:47.142Z,7.62
2019-04-29T12:10:16.178Z,8.48
2019-04-29T12:12:47.770Z,7.90
2019-04-29T12:15:17.541Z,6.28
2019-04-29T12:17:50.884Z,6.10
2019-04-29T12:20:21.914Z,6.37
2019-04-29T12:22:50.877Z,7.35
2019-04-29T12:25:22.939Z,5.97
2019-04-29T12:27:52.839Z,5.20
2019-04-29T12:30:23.117Z,6.47
2019-04-29T12:33:01.191Z,6.17
2019-04-29T12:35:30.285Z,6.17
2019-04-29T12:38:11.232Z,5.67
2019-04-29T12:40:50.231Z,5.72
2019-04-29T12:43:35.183Z,5.97
2019-04-29T12:46:20.863Z,6.58
2019-04-29T12:48:50.189Z,5.97
2019-04-29T12:51:19.178Z,5.80
2019-04-29T12:53:48.206Z,6.40
2019-04-29T12:56:19.088Z,6.30
2019-04-29T12:58:50.517Z,6.03
2019-04-29T13:01:23.133Z,6.17
2019-04-29T13:03:53.859Z,6.12
2019-04-29T13:06:38.290Z,5.70
2019-04-29T13:08:57.007Z,5.30
2019-04-29T13:11:37.493Z,5.25
2019-04-29T13:14:01.692Z,5.60
2019-04-29T13:16:33.190Z,6.17
2019-04-29T13:19:12.415Z,6.58
2019-04-29T13:21:40.410Z,5.80
2019-04-29T13:24:22.384Z,6.47
2019-04-29T13:26:42.905Z,6.35
2019-04-29T13:29:25.856Z,7.95
2019-04-29T13:31:42.253Z,6.95
2019-04-29T13:34:23.484Z,6.60
2019-04-29T13:36:43.677Z,7.20
2019-04-29T13:39:12.754Z,7.97
2019-04-29T13:41:56.380Z,7.37
2019-04-29T13:44:12.407Z,7.97
2019-04-29T13:46:54.060Z,6.83
2019-04-29T13:49:27.287Z,7.90
2019-04-29T13:51:57.966Z,7.83
2019-04-29T13:54:26.980Z,8.15
2019-04-29T13:57:01.140Z,40.55
2019-04-29T13:59:34.859Z,7.90
2019-04-29T14:02:17.555Z,8.13
2019-04-29T14:04:48.159Z,8.30
2019-04-29T14:07:18.164Z,7.45
2019-04-29T14:09:47.986Z,7.65
2019-04-29T14:12:47.160Z,7.65
2019-04-29T14:14:47.716Z,6.15
2019-04-29T14:17:25.818Z,7.03
2019-04-29T14:19:47.483Z,6.92
2019-04-29T14:22:22.448Z,6.50
2019-04-29T14:24:47.176Z,7.75
2019-04-29T14:27:24.482Z,7.42
2019-04-29T14:29:46.865Z,9.13
2019-04-29T14:32:18.297Z,8.68
2019-04-29T14:35:07.090Z,8.70
2019-04-29T14:37:34.429Z,9.08
2019-04-29T14:40:07.625Z,9.13
2019-04-29T14:42:56.820Z,8.58
2019-04-29T14:45:31.977Z,9.80
2019-04-29T14:48:11.382Z,8.90
2019-04-29T14:50:41.742Z,9.35
2019-04-29T14:53:10.798Z,9.25
2019-04-29T14:55:39.809Z,9.75
2019-04-29T14:58:08.836Z,8.90
2019-04-29T15:00:51.681Z,9.65
2019-04-29T15:03:22.384Z,9.87
2019-04-29T15:05:51.397Z,9.43
2019-04-29T15:08:20.489Z,10.28
2019-04-29T15:10:51.136Z,10.10
2019-04-29T15:13:21.795Z,8.73
2019-04-29T15:16:04.693Z,9.13
2019-04-29T15:18:50.359Z,8.55
2019-04-29T15:21:32.096Z,8.63
2019-04-29T15:23:53.009Z,8.90
2019-04-29T15:26:21.975Z,8.70
2019-04-29T15:28:50.988Z,8.13
2019-04-29T15:31:24.653Z,7.77
2019-04-29T15:36:21.892Z,7.23
2019-04-29T15:39:08.060Z,8.40
2019-04-29T15:41:29.749Z,8.77
2019-04-29T15:44:06.487Z,8.93
2019-04-29T15:46:24.050Z,8.63
2019-04-29T15:48:53.078Z,8.65
2019-04-29T15:51:22.044Z,8.90
2019-04-29T15:53:54.303Z,8.83
2019-04-29T15:56:28.685Z,10.40
2019-04-29T15:58:52.456Z,10.32
2019-04-29T16:01:27.111Z,10.53
2019-04-29T16:03:55.166Z,10.65
2019-04-29T16:06:42.553Z,10.10
2019-04-29T16:09:15.957Z,10.00
2019-04-29T16:11:49.409Z,10.13
2019-04-29T16:14:20.115Z,10.70
2019-04-29T16:16:49.153Z,10.48
2019-04-29T16:19:18.141Z,11.10
2019-04-29T16:21:47.158Z,11.00
2019-04-29T16:24:26.392Z,11.35
2019-04-29T16:26:53.251Z,11.50
2019-04-29T16:29:17.817Z,12.23
2019-04-29T16:31:46.882Z,12.98
2019-04-29T16:34:15.975Z,14.03
2019-04-29T16:36:50.086Z,13.60
2019-04-29T16:39:15.994Z,13.85
2019-04-29T16:41:58.240Z,13.95
2019-04-29T16:44:35.784Z,14.78
2019-04-29T16:46:54.294Z,14.15
2019-04-29T16:49:23.663Z,15.30
2019-04-29T16:51:53.453Z,15.58
2019-04-29T16:54:28.187Z,15.83
2019-04-29T16:56:54.132Z,18.48
2019-04-29T16:59:23.179Z,15.75
2019-04-29T17:01:52.650Z,14.60
2019-04-29T17:04:21.728Z,14.18
2019-04-29T17:07:11.280Z,14.65
2019-04-29T17:09:28.919Z,15.08
2019-04-29T17:11:59.097Z,14.50
2019-04-29T17:14:28.220Z,15.13
2019-04-29T17:16:57.209Z,14.65
2019-04-29T17:19:26.250Z,13.55
2019-04-29T17:22:23.767Z,13.62
2019-04-29T17:24:25.947Z,13.78
2019-04-29T17:26:57.107Z,14.33
2019-04-29T17:29:49.334Z,14.83
2019-04-29T17:35:05.992Z,17.07
2019-04-29T17:35:14.780Z,16.17
2019-04-29T17:37:35.210Z,18.52
2019-04-29T17:40:06.783Z,18.52
2019-04-29T17:42:37.550Z,18.92
2019-04-29T17:45:12.367Z,20.82
2019-04-29T17:47:42.509Z,21.35
2019-04-29T17:50:29.415Z,20.12
2019-04-29T17:52:49.717Z,21.25
2019-04-29T17:55:20.466Z,20.85
2019-04-29T17:57:59.874Z,21.57
2019-04-29T18:00:44.658Z,20.12
2019-04-29T18:03:15.274Z,19.48
2019-04-29T18:05:58.230Z,19.70
2019-04-29T18:08:28.864Z,18.57
2019-04-29T18:10:59.838Z,17.70
2019-04-29T18:13:30.161Z,17.40
2019-04-29T18:16:03.948Z,16.00
2019-04-29T18:18:53.498Z,14.90
2019-04-29T18:21:43.158Z,14.00
2019-04-29T18:24:11.751Z,14.58
2019-04-29T18:26:44.241Z,13.98
2019-04-29T18:29:16.065Z,14.33
2019-04-29T18:31:46.502Z,13.68
2019-04-29T18:34:15.601Z,13.40
2019-04-29T18:36:45.774Z,13.88
2019-04-29T18:39:20.034Z,13.18
2019-04-29T18:41:50.139Z,14.05
2019-04-29T18:44:19.803Z,13.30
2019-04-29T18:46:53.586Z,12.85
2019-04-29T18:49:19.514Z,12.37
2019-04-29T18:51:48.490Z,12.05
2019-04-29T18:54:17.469Z,11.80
2019-04-29T18:56:46.700Z,11.95
2019-04-29T18:59:21.037Z,11.78
2019-04-29T19:01:46.447Z,12.03
2019-04-29T19:04:19.242Z,11.90
2019-04-29T19:06:51.338Z,12.47
2019-04-29T19:09:20.758Z,11.60
2019-04-29T19:11:50.248Z,12.15
2019-04-29T19:14:20.447Z,12.10
2019-04-29T19:16:52.709Z,11.55
2019-04-29T19:19:20.738Z,11.05
2019-04-29T19:21:49.719Z,11.30
2019-04-29T19:24:19.139Z,11.45
2019-04-29T19:26:48.164Z,11.30
2019-04-29T19:29:17.235Z,10.75
2019-04-29T19:31:49.654Z,11.35
2019-04-29T19:34:18.669Z,10.60
2019-04-29T19:36:50.793Z,10.35
2019-04-29T19:39:21.853Z,10.72
2019-04-29T19:41:50.418Z,10.05
2019-04-29T19:44:20.185Z,10.53
2019-04-29T19:46:49.262Z,9.78
2019-04-29T19:49:18.298Z,9.45
2019-04-29T19:51:47.637Z,9.65
2019-04-29T19:54:23.874Z,9.50
2019-04-29T19:56:47.633Z,9.80
2019-04-29T19:59:17.710Z,9.48
2019-04-29T20:01:51.214Z,9.58
2019-04-29T20:04:38.010Z,10.03
2019-04-29T20:07:10.405Z,9.58
2019-04-29T20:09:39.369Z,10.13
2019-04-29T20:12:12.884Z,9.90
2019-04-29T20:14:39.893Z,10.23
2019-04-29T20:17:17.835Z,8.85
2019-04-29T20:19:55.042Z,9.40
2019-04-29T20:22:19.831Z,9.55
2019-04-29T20:24:50.720Z,9.13
2019-04-29T20:27:20.463Z,9.20
2019-04-29T20:29:50.144Z,9.45
2019-04-29T20:32:22.533Z,9.08
2019-04-29T20:34:50.084Z,10.00
2019-04-29T20:37:19.900Z,9.65
2019-04-29T20:39:52.115Z,10.63
2019-04-29T20:42:19.784Z,10.40
2019-04-29T20:44:49.487Z,9.63
2019-04-29T20:47:22.896Z,10.23
2019-04-29T20:49:49.497Z,10.18
2019-04-29T20:52:29.420Z,9.85
2019-04-29T20:55:02.515Z,10.23
2019-04-29T20:57:29.850Z,10.08
2019-04-29T20:59:59.028Z,10.68
2019-04-29T21:02:33.827Z,10.10
2019-04-29T21:04:58.950Z,11.03
2019-04-29T21:07:28.058Z,10.80
2019-04-29T21:10:00.015Z,10.82
2019-04-29T21:12:45.874Z,11.18
2019-04-29T21:15:33.482Z,11.18
2019-04-29T21:18:02.519Z,11.80
2019-04-29T21:20:31.516Z,10.65
2019-04-29T21:23:01.072Z,11.12
2019-04-29T21:25:30.730Z,11.45
2019-04-29T21:28:02.253Z,11.65
2019-04-29T21:30:35.496Z,12.40
2019-04-29T21:33:01.274Z,12.47
2019-04-29T21:35:40.671Z,11.78
2019-04-29T21:38:17.889Z,12.40
2019-04-29T21:40:56.087Z,11.75
2019-04-29T21:43:26.821Z,12.43
2019-04-29T21:45:55.790Z,12.50
2019-04-29T21:48:33.097Z,12.23
2019-04-29T21:50:55.883Z,12.53
2019-04-29T21:53:25.310Z,12.65
2019-04-29T21:55:55.446Z,12.58
2019-04-29T21:58:28.696Z,14.05
2019-04-29T22:00:59.241Z,14.07
2019-04-29T22:03:28.395Z,14.03
2019-04-29T22:05:58.969Z,13.68
2019-04-29T22:08:30.048Z,13.72
2019-04-29T22:11:05.090Z,13.48
2019-04-29T22:13:30.640Z,14.40
2019-04-29T22:16:00.677Z,14.23
2019-04-29T22:18:29.903Z,13.93
2019-04-29T22:20:59.046Z,13.93
2019-04-29T22:23:28.079Z,13.72
2019-04-29T22:25:57.036Z,14.05
2019-04-29T22:28:26.176Z,14.40
2019-04-29T22:30:56.219Z,15.08
2019-04-29T22:33:29.808Z,14.55
2019-04-29T22:35:56.333Z,14.38
2019-04-29T22:38:25.391Z,14.15
2019-04-29T22:40:56.023Z,14.07
2019-04-29T22:43:36.183Z,14.85
2019-04-29T22:46:09.514Z,15.38
2019-04-29T22:48:36.097Z,14.93
2019-04-29T22:51:10.005Z,14.95
2019-04-29T22:53:40.006Z,15.30
2019-04-29T22:56:09.080Z,15.44
2019-04-29T22:58:39.435Z,15.28
2019-04-29T23:01:09.514Z,15.72
2019-04-29T23:03:38.866Z,15.68
2019-04-29T23:06:08.614Z,15.50
2019-04-29T23:08:38.323Z,16.85
2019-04-29T23:11:07.545Z,16.90
2019-04-29T23:13:38.116Z,16.37
2019-04-29T23:16:07.375Z,16.65
2019-04-29T23:18:42.123Z,17.50
2019-04-29T23:21:28.051Z,17.67
2019-04-29T23:23:59.094Z,16.93
2019-04-29T23:26:28.081Z,17.05
2019-04-29T23:28:59.531Z,17.70
2019-04-29T23:31:28.340Z,17.02
2019-04-29T23:33:57.391Z,18.40
2019-04-29T23:36:26.409Z,17.12
2019-04-29T23:38:56.677Z,18.10
2019-04-29T23:41:32.833Z,17.23
2019-04-29T23:44:00.004Z,17.45
2019-04-29T23:46:29.756Z,17.95
2019-04-29T23:49:03.135Z,18.07
2019-04-29T23:51:34.288Z,18.32
2019-04-29T23:54:03.325Z,18.10
2019-04-29T23:56:31.681Z,17.92
2019-04-29T23:59:02.295Z,18.05
